Time;durP1;ratioP1;P1;durP2;ratioP2;P2;SDS_P1;SDS_P2;PMS_P1;PMS_P2;Temp;Humidity;BMP_temperature;BMP_pressure;BME280_temperature;BME280_humidity;BME280_pressure;Samples;Min_cycle;Max_cycle;Signal;HPM_P1;HPM_P2
2021/07/02 15:30:39;;;;;;;9.02;4.45;;;30.40;72.10;;;;;;5069544;23;20046;-89
2021/07/02 15:33:15;;;;;;;6.07;3.65;;;30.20;71.80;;;;;;4847453;29;20045;-90
2021/07/02 15:35:43;;;;;;;5.82;3.08;;;30.00;73.40;;;;;;4835001;29;20073;-91
2021/07/02 15:38:12;;;;;;;8.85;3.33;;;29.80;73.10;;;;;;4857531;29;20038;-90
2021/07/02 15:40:42;;;;;;;9.82;3.70;;;29.80;72.60;;;;;;4842584;29;20053;-89
2021/07/02 15:43:15;;;;;;;5.95;3.67;;;29.70;72.90;;;;;;4854138;29;20068;-90
2021/07/02 15:45:43;;;;;;;6.68;3.60;;;29.50;73.10;;;;;;4841386;29;20068;-90
2021/07/02 15:48:11;;;;;;;7.57;3.67;;;29.50;73.20;;;;;;4848456;29;20057;-89
2021/07/02 15:50:40;;;;;;;6.07;3.78;;;29.30;72.90;;;;;;4834682;29;20058;-90
2021/07/02 15:53:08;;;;;;;7.72;4.10;;;28.90;73.60;;;;;;4833015;29;20060;-90
2021/07/02 15:55:37;;;;;;;6.28;3.08;;;28.60;74.10;;;;;;4844841;29;20400;-91
2021/07/02 15:58:06;;;;;;;8.48;3.70;;;28.30;75.00;;;;;;4859843;29;20054;-90
2021/07/02 16:00:35;;;;;;;7.85;3.92;;;28.00;75.40;;;;;;4833062;29;20045;-89
2021/07/02 16:03:03;;;;;;;9.20;4.10;;;28.00;76.40;;;;;;4841002;29;20065;-90
2021/07/02 16:05:54;;;;;;;5.68;3.60;;;28.40;76.10;;;;;;4844772;29;20065;-90
2021/07/02 16:08:22;;;;;;;6.05;3.50;;;29.00;74.60;;;;;;4820614;29;20408;-90
2021/07/02 16:10:53;;;;;;;6.38;3.97;;;30.60;75.30;;;;;;4830692;29;20074;-88
2021/07/02 16:13:22;;;;;;;5.82;3.70;;;29.80;72.70;;;;;;4855107;29;20517;-89
2021/07/02 16:15:51;;;;;;;6.55;3.58;;;30.70;71.70;;;;;;4854932;29;20056;-88
2021/07/02 16:18:22;;;;;;;5.60;3.53;;;30.70;71.40;;;;;;4850910;29;20060;-90
2021/07/02 16:20:56;;;;;;;6.13;3.65;;;30.40;70.90;;;;;;4849190;29;20149;-89
2021/07/02 16:23:31;;;;;;;8.32;3.97;;;29.70;71.60;;;;;;4837163;29;20053;-89
2021/07/02 16:26:03;;;;;;;6.65;4.15;;;28.90;72.30;;;;;;4844338;29;20049;-89
2021/07/02 16:28:31;;;;;;;7.05;3.72;;;28.30;73.40;;;;;;4839155;29;20049;-90
2021/07/02 16:31:00;;;;;;;6.90;4.05;;;27.80;74.30;;;;;;4835082;29;20062;-90
2021/07/02 16:33:29;;;;;;;6.68;3.55;;;27.90;74.40;;;;;;4844356;29;20128;-90
2021/07/02 16:35:58;;;;;;;7.63;3.58;;;28.50;74.50;;;;;;4856521;29;20571;-90
2021/07/02 16:38:27;;;;;;;6.95;3.65;;;28.80;73.50;;;;;;4833073;29;20512;-89
2021/07/02 16:40:55;;;;;;;7.22;3.15;;;28.70;73.40;;;;;;4841330;29;20077;-89
2021/07/02 16:43:23;;;;;;;5.60;3.80;;;28.40;73.40;;;;;;4850385;29;20057;-89
2021/07/02 16:45:55;;;;;;;8.27;5.10;;;28.20;74.20;;;;;;4845199;29;20054;-90
2021/07/02 16:48:23;;;;;;;13.50;4.45;;;28.20;75.70;;;;;;4852717;29;20065;-90
2021/07/02 16:50:51;;;;;;;10.90;5.53;;;28.00;76.30;;;;;;4839581;29;20061;-89
2021/07/02 16:53:20;;;;;;;8.70;4.93;;;27.90;76.70;;;;;;4838737;29;20064;-90
2021/07/02 16:55:48;;;;;;;9.63;4.22;;;27.80;77.00;;;;;;4870142;29;20060;-89
2021/07/02 16:58:18;;;;;;;8.32;5.05;;;28.10;77.50;;;;;;4849815;29;20045;-92
2021/07/02 17:01:28;;;;;;;7.57;4.72;;;28.50;76.70;;;;;;4854316;29;20061;-89
2021/07/02 17:03:57;;;;;;;10.27;4.40;;;28.60;76.40;;;;;;4858174;29;20041;-90
2021/07/02 17:06:26;;;;;;;8.70;4.75;;;28.50;77.00;;;;;;4833367;29;20417;-89
2021/07/02 17:08:54;;;;;;;9.80;4.60;;;28.40;78.10;;;;;;4848039;29;20057;-88
2021/07/02 17:11:24;;;;;;;7.97;4.53;;;28.10;78.50;;;;;;4844659;29;20483;-88
2021/07/02 17:13:52;;;;;;;7.65;3.90;;;27.90;79.10;;;;;;4836152;29;20065;-88
2021/07/02 17:16:20;;;;;;;7.40;4.55;;;27.80;78.60;;;;;;4834986;29;20060;-90
2021/07/02 17:18:48;;;;;;;8.90;4.72;;;27.80;78.70;;;;;;4838312;29;20151;-89
2021/07/02 17:21:21;;;;;;;9.10;4.60;;;27.70;78.80;;;;;;4850815;29;20061;-91
2021/07/02 17:23:50;;;;;;;10.80;5.32;;;27.70;79.10;;;;;;4819984;29;20528;-90
2021/07/02 17:26:25;;;;;;;11.20;6.43;;;27.60;79.30;;;;;;4824485;29;20058;-89
2021/07/02 17:29:14;;;;;;;7.57;4.68;;;27.50;79.80;;;;;;4847967;29;20037;-89
2021/07/02 17:31:45;;;;;;;10.00;5.10;;;27.60;80.00;;;;;;4834596;29;20056;-89
2021/07/02 17:34:13;;;;;;;9.48;4.93;;;27.40;79.80;;;;;;4849733;29;20046;-89
2021/07/02 17:36:42;;;;;;;14.57;5.13;;;27.60;80.80;;;;;;4827770;29;20077;-89
2021/07/02 17:39:12;;;;;;;12.48;5.63;;;27.70;80.80;;;;;;4836385;29;20058;-90
2021/07/02 17:41:45;;;;;;;11.80;5.57;;;27.70;81.60;;;;;;4831820;29;20050;-90
2021/07/02 17:44:15;;;;;;;14.07;6.47;;;27.60;81.90;;;;;;4843562;29;20058;-89
2021/07/02 17:46:44;;;;;;;12.65;7.15;;;27.50;82.80;;;;;;4832252;29;20058;-88
2021/07/02 17:49:15;;;;;;;12.40;6.32;;;27.20;83.30;;;;;;4853502;29;20049;-90
2021/07/02 17:51:44;;;;;;;;;;;27.20;82.80;;;;;;4862728;29;20050;-88
2021/07/02 17:54:14;;;;;;;16.90;8.95;;;27.00;84.00;;;;;;4844398;29;19928;-89
2021/07/02 17:56:42;;;;;;;13.55;7.03;;;26.90;84.10;;;;;;4834846;29;20046;-89
2021/07/02 17:59:10;;;;;;;13.30;6.47;;;26.90;84.00;;;;;;4844661;29;20058;-89
2021/07/02 18:01:40;;;;;;;16.02;7.45;;;27.10;84.60;;;;;;4850268;29;20064;-89
2021/07/02 18:04:09;;;;;;;13.05;6.85;;;27.40;84.60;;;;;;4834257;29;20050;-89
2021/07/02 18:06:38;;;;;;;16.20;7.75;;;28.00;83.40;;;;;;4852659;29;20064;-89
2021/07/02 18:09:05;;;;;;;15.65;6.45;;;28.20;83.10;;;;;;4840627;29;20058;-88
2021/07/02 18:11:33;;;;;;;14.75;8.15;;;28.50;82.50;;;;;;4826010;29;20058;-89
2021/07/02 18:14:03;;;;;;;11.95;7.13;;;28.50;82.30;;;;;;4830715;29;20053;-89
2021/07/02 18:16:37;;;;;;;13.63;7.85;;;28.40;82.20;;;;;;4863755;29;20050;-88
2021/07/02 18:19:09;;;;;;;13.10;7.32;;;28.30;82.10;;;;;;4857846;29;20050;-89
2021/07/02 18:21:42;;;;;;;16.70;8.07;;;28.10;82.40;;;;;;4842329;29;20057;-88
2021/07/02 18:24:20;;;;;;;17.23;8.25;;;27.80;83.10;;;;;;4824568;29;20053;-87
2021/07/02 18:26:50;;;;;;;15.25;7.38;;;27.50;83.50;;;;;;4851534;29;20045;-89
2021/07/02 18:29:18;;;;;;;14.27;7.30;;;27.30;84.50;;;;;;4836018;29;20057;-89
2021/07/02 18:31:48;;;;;;;14.32;8.10;;;27.20;84.50;;;;;;4854630;29;20073;-89
2021/07/02 18:34:17;;;;;;;16.05;8.77;;;27.00;84.60;;;;;;4859562;29;20046;-89
2021/07/02 18:37:13;;;;;;;14.10;6.95;;;27.00;85.00;;;;;;4849179;29;20050;-89
2021/07/02 18:39:45;;;;;;;17.27;7.43;;;26.80;85.00;;;;;;4851215;29;20045;-88
2021/07/02 18:42:17;;;;;;;15.43;8.07;;;26.70;85.30;;;;;;4850072;29;20045;-88
2021/07/02 18:44:52;;;;;;;19.58;7.88;;;26.70;84.90;;;;;;4850233;29;20061;-87
2021/07/02 18:47:20;;;;;;;14.60;7.47;;;26.40;85.00;;;;;;4848061;29;20062;-87
2021/07/02 18:49:55;;;;;;;13.32;7.53;;;26.10;86.20;;;;;;4852047;29;20069;-87
2021/07/02 18:52:27;;;;;;;12.70;6.60;;;25.80;85.80;;;;;;4850775;29;20045;-89
2021/07/02 18:54:57;;;;;;;13.63;7.03;;;25.50;86.10;;;;;;4838740;29;20065;-88
2021/07/02 18:57:29;;;;;;;17.17;9.02;;;25.20;86.60;;;;;;4839248;29;20050;-90
2021/07/02 19:00:00;;;;;;;12.38;7.65;;;24.90;87.00;;;;;;4845725;29;20056;-91
2021/07/02 19:02:35;;;;;;;18.23;7.63;;;24.70;87.50;;;;;;4838885;29;20053;-92
2021/07/02 19:05:10;;;;;;;16.25;7.35;;;24.80;87.70;;;;;;4837661;29;20052;-91
2021/07/02 19:07:39;;;;;;;12.82;7.75;;;24.40;87.90;;;;;;4837096;29;20057;-91
2021/07/02 19:10:11;;;;;;;14.80;8.23;;;24.10;87.90;;;;;;4852614;29;20061;-90
2021/07/02 19:12:41;;;;;;;15.73;7.63;;;24.30;88.40;;;;;;4828356;29;20049;-89
2021/07/02 19:15:13;;;;;;;13.73;7.85;;;24.30;89.10;;;;;;4864953;29;20073;-88
2021/07/02 19:17:45;;;;;;;14.10;8.30;;;24.20;88.50;;;;;;4855709;29;20041;-90
2021/07/02 19:20:19;;;;;;;14.25;6.85;;;24.20;88.10;;;;;;4848961;29;20053;-89
2021/07/02 19:22:51;;;;;;;15.18;7.75;;;24.20;88.60;;;;;;4850444;29;20053;-89
2021/07/02 19:25:30;;;;;;;12.88;7.60;;;24.50;88.60;;;;;;4844470;29;20045;-88
2021/07/02 19:28:01;;;;;;;15.27;6.15;;;24.10;88.50;;;;;;4848604;29;20073;-90
2021/07/02 19:30:35;;;;;;;;;;;24.00;89.20;;;;;;4852598;29;20061;-89
2021/07/02 19:33:04;;;;;;;13.48;6.38;;;23.90;90.10;;;;;;4852016;29;19928;-89
2021/07/02 19:35:34;;;;;;;17.20;6.82;;;23.80;90.00;;;;;;4820815;29;20496;-91
2021/07/02 19:38:03;;;;;;;13.80;7.25;;;23.70;89.90;;;;;;4850150;29;20054;-93
2021/07/02 19:40:34;;;;;;;;;;;23.60;89.80;;;;;;4833521;29;20061;-89
2021/07/02 19:43:06;;;;;;;14.50;6.72;;;24.00;90.80;;;;;;4851118;29;19924;-90
2021/07/02 19:45:42;;;;;;;11.93;7.88;;;24.20;90.30;;;;;;4853381;29;20049;-92
2021/07/02 19:48:13;;;;;;;16.27;7.88;;;23.40;90.30;;;;;;4855971;29;20058;-89
2021/07/02 19:50:45;;;;;;;12.38;6.63;;;23.20;90.00;;;;;;4852349;29;20486;-89
2021/07/02 19:53:31;;;;;;;13.05;7.20;;;23.20;90.30;;;;;;4861097;29;20054;-88
2021/07/02 19:56:23;;;;;;;10.38;5.95;;;24.00;90.70;;;;;;4841874;29;20053;-90
2021/07/02 19:59:05;;;;;;;13.27;6.53;;;23.00;90.30;;;;;;4841369;29;20050;-90
2021/07/02 20:01:39;;;;;;;14.95;6.70;;;22.90;90.70;;;;;;4839247;29;20053;-89
2021/07/02 20:04:12;;;;;;;11.55;6.65;;;22.80;90.70;;;;;;4858372;29;20390;-90
2021/07/02 20:06:43;;;;;;;13.65;8.00;;;22.70;90.90;;;;;;4831106;29;20457;-91
2021/07/02 20:09:19;;;;;;;12.45;6.70;;;22.70;91.00;;;;;;4842374;29;20042;-89
2021/07/02 20:12:01;;;;;;;13.75;7.13;;;22.60;91.50;;;;;;4867159;29;20032;-91
2021/07/02 20:14:43;;;;;;;12.30;6.50;;;22.50;91.80;;;;;;4843620;29;20050;-88
2021/07/02 20:17:27;;;;;;;12.40;6.57;;;22.40;92.00;;;;;;4827164;29;20069;-88
2021/07/02 20:19:58;;;;;;;15.37;7.67;;;22.30;92.20;;;;;;4851395;29;20147;-88
2021/07/02 20:22:43;;;;;;;15.85;6.88;;;22.20;92.10;;;;;;4810771;29;20061;-90
2021/07/02 20:25:13;;;;;;;16.15;7.35;;;22.10;92.20;;;;;;4836657;29;20535;-88
2021/07/02 20:28:14;;;;;;;15.32;7.07;;;22.50;93.00;;;;;;4830495;29;20073;-93
2021/07/02 20:31:29;;;;;;;13.55;6.50;;;22.10;93.10;;;;;;4852594;29;20058;-93
2021/07/02 20:39:05;;;;;;;13.70;6.60;;;23.20;93.20;;;;;;4834733;29;20045;-92
2021/07/02 20:42:57;;;;;;;11.55;6.30;;;21.70;92.80;;;;;;4850135;29;20053;-94
2021/07/02 20:46:23;;;;;;;12.65;6.57;;;21.90;92.90;;;;;;4871111;24;20050;-83
2021/07/02 20:48:53;;;;;;;13.40;5.80;;;21.60;92.70;;;;;;4836432;29;20057;-85
2021/07/02 20:51:26;;;;;;;10.03;5.60;;;21.60;92.50;;;;;;4861160;29;20137;-84
2021/07/02 20:53:57;;;;;;;13.90;6.25;;;21.50;92.80;;;;;;4860321;29;20062;-82
2021/07/02 20:56:27;;;;;;;13.90;6.57;;;21.60;92.90;;;;;;4859703;29;20053;-85
2021/07/02 20:58:57;;;;;;;10.02;5.80;;;21.50;92.60;;;;;;4877373;29;20061;-82
2021/07/02 21:01:27;;;;;;;13.05;6.60;;;21.40;92.60;;;;;;4855782;29;20066;-83
2021/07/02 21:03:57;;;;;;;12.55;6.43;;;21.40;93.10;;;;;;4860791;29;20578;-84
2021/07/02 21:06:27;;;;;;;11.10;6.28;;;21.40;92.90;;;;;;4862227;29;20058;-84
2021/07/02 21:08:55;;;;;;;12.45;6.47;;;21.30;93.10;;;;;;4859507;29;21178;-82
2021/07/02 21:11:24;;;;;;;14.38;7.20;;;21.30;93.30;;;;;;4865273;29;20054;-83
2021/07/02 21:13:53;;;;;;;14.75;6.18;;;21.30;93.80;;;;;;4865702;29;20048;-83
2021/07/02 21:16:30;;;;;;;16.10;7.30;;;21.20;93.50;;;;;;4864694;29;20061;-83
2021/07/02 21:18:58;;;;;;;18.80;6.97;;;21.20;93.70;;;;;;4839705;29;20041;-83
2021/07/02 21:21:27;;;;;;;16.13;6.45;;;21.10;93.40;;;;;;4867017;29;20049;-84
2021/07/02 21:27:38;;;;;;;14.82;6.75;;;21.10;93.80;;;;;;4890396;29;20053;-83
2021/07/02 21:30:07;;;;;;;13.57;6.25;;;21.00;93.50;;;;;;4882988;29;20056;-82
2021/07/02 21:32:36;;;;;;;12.40;7.00;;;21.00;93.60;;;;;;4870462;29;20065;-82
2021/07/02 21:35:06;;;;;;;12.13;6.85;;;21.00;93.70;;;;;;4840468;29;20525;-82
2021/07/02 21:37:35;;;;;;;15.45;7.78;;;21.00;93.70;;;;;;4870199;29;20049;-82
2021/07/02 21:40:09;;;;;;;13.27;6.47;;;21.00;93.90;;;;;;4862256;29;20060;-82
2021/07/02 21:42:38;;;;;;;15.60;7.20;;;21.00;94.10;;;;;;4880988;29;20053;-86
2021/07/02 21:45:09;;;;;;;15.18;7.53;;;21.00;94.20;;;;;;4879149;29;20045;-83
2021/07/02 21:47:38;;;;;;;19.13;8.10;;;21.00;94.10;;;;;;4861682;29;20056;-83
2021/07/02 21:50:06;;;;;;;14.70;7.13;;;21.90;94.50;;;;;;4878100;29;20054;-82
2021/07/02 21:52:35;;;;;;;16.58;8.05;;;21.00;94.20;;;;;;4861426;29;20049;-83
2021/07/02 21:55:05;;;;;;;17.42;7.43;;;21.00;94.50;;;;;;4871526;29;20058;-83
2021/07/02 21:57:34;;;;;;;13.52;7.78;;;20.80;94.30;;;;;;4873129;29;20061;-82
2021/07/02 22:00:09;;;;;;;15.70;8.75;;;20.90;94.80;;;;;;4883650;29;20053;-82
2021/07/02 22:02:37;;;;;;;14.50;7.50;;;20.90;94.70;;;;;;4875975;29;20053;-82
2021/07/02 22:05:06;;;;;;;14.02;7.53;;;20.90;95.10;;;;;;4879624;29;20056;-82
2021/07/02 22:07:37;;;;;;;12.70;7.40;;;20.80;94.80;;;;;;4850189;29;20060;-82
2021/07/02 22:10:08;;;;;;;12.57;5.93;;;20.80;95.50;;;;;;4882897;29;20052;-82
2021/07/02 22:12:36;;;;;;;15.95;7.75;;;20.80;95.30;;;;;;4862485;29;20314;-82
2021/07/02 22:15:08;;;;;;;21.27;8.07;;;20.70;95.80;;;;;;4880203;29;20588;-83
2021/07/02 22:17:36;;;;;;;18.23;8.82;;;20.60;95.60;;;;;;4878128;29;20415;-83
2021/07/02 22:20:06;;;;;;;18.27;7.85;;;20.60;96.10;;;;;;4876722;29;20052;-84
2021/07/02 22:22:51;;;;;;;15.75;7.90;;;20.50;95.90;;;;;;4879247;29;20423;-84
2021/07/02 22:25:21;;;;;;;20.60;9.07;;;20.40;96.10;;;;;;4842569;29;20053;-83
2021/07/02 22:27:49;;;;;;;19.67;8.75;;;20.40;96.20;;;;;;4863692;29;20283;-83
2021/07/02 22:30:18;;;;;;;15.15;8.82;;;20.30;96.60;;;;;;4866041;29;20061;-85
2021/07/02 22:32:46;;;;;;;15.85;8.52;;;20.30;96.30;;;;;;4861748;29;20057;-85
2021/07/02 22:35:14;;;;;;;18.75;9.85;;;20.40;96.70;;;;;;4865050;29;20074;-82
2021/07/02 22:37:43;;;;;;;15.75;8.38;;;20.30;96.80;;;;;;4852311;29;20046;-84
2021/07/02 22:40:16;;;;;;;18.77;8.88;;;20.30;97.00;;;;;;4855074;29;20060;-84
2021/07/02 22:42:49;;;;;;;20.75;9.85;;;20.30;97.10;;;;;;4863375;29;20057;-83
2021/07/02 22:45:18;;;;;;;18.20;10.27;;;20.30;97.00;;;;;;4861956;29;20054;-83
2021/07/02 22:47:47;;;;;;;19.42;9.10;;;20.40;97.10;;;;;;4847041;29;20558;-84
2021/07/02 22:50:16;;;;;;;19.80;9.68;;;20.30;97.10;;;;;;4862374;29;20063;-84
2021/07/02 22:52:44;;;;;;;15.52;7.55;;;20.00;97.00;;;;;;4865063;29;20045;-82
2021/07/02 22:55:13;;;;;;;20.45;9.20;;;20.40;97.50;;;;;;4860053;29;20065;-83
2021/07/02 22:57:42;;;;;;;16.58;8.98;;;20.40;97.30;;;;;;4866368;29;20065;-81
2021/07/02 23:00:15;;;;;;;21.60;8.15;;;20.50;97.30;;;;;;4863201;29;20060;-83
2021/07/02 23:02:47;;;;;;;16.55;8.30;;;20.40;97.50;;;;;;4865495;29;20053;-81
2021/07/02 23:05:15;;;;;;;;;;;20.40;97.70;;;;;;4838253;29;20061;-82
2021/07/02 23:07:44;;;;;;;18.45;7.78;;;20.50;98.40;;;;;;4837487;29;19928;-83
2021/07/02 23:10:16;;;;;;;15.05;7.57;;;20.40;97.90;;;;;;4837662;29;20046;-82
2021/07/02 23:12:45;;;;;;;16.58;8.13;;;20.40;98.40;;;;;;4854231;29;20057;-82
2021/07/02 23:15:14;;;;;;;19.10;8.88;;;20.40;98.10;;;;;;4838264;29;20054;-83
2021/07/02 23:17:44;;;;;;;19.83;9.30;;;20.40;98.50;;;;;;4825065;29;20072;-82
2021/07/02 23:20:12;;;;;;;16.85;8.85;;;20.40;98.60;;;;;;4853356;29;20077;-82
2021/07/02 23:22:41;;;;;;;17.77;9.50;;;20.30;98.70;;;;;;4855789;29;20064;-82
2021/07/02 23:25:11;;;;;;;20.23;8.93;;;20.20;98.80;;;;;;4855180;29;20049;-83
2021/07/02 23:27:39;;;;;;;20.33;9.15;;;20.20;98.90;;;;;;4865443;29;20049;-82
2021/07/02 23:30:08;;;;;;;16.77;9.07;;;20.20;98.90;;;;;;4847676;29;20041;-85
2021/07/02 23:32:42;;;;;;;19.23;8.85;;;20.30;98.80;;;;;;4863820;29;20065;-83
2021/07/02 23:35:12;;;;;;;16.77;8.00;;;20.20;98.80;;;;;;4861809;29;20052;-85
2021/07/02 23:37:40;;;;;;;14.82;8.27;;;20.20;98.30;;;;;;4845462;29;20056;-82
2021/07/02 23:40:10;;;;;;;19.60;8.38;;;20.20;98.10;;;;;;4859998;29;20064;-82
2021/07/02 23:42:39;;;;;;;13.80;6.43;;;20.20;98.00;;;;;;4865015;29;20062;-85
2021/07/02 23:45:09;;;;;;;19.60;7.38;;;20.20;98.30;;;;;;4856577;29;20307;-82
2021/07/02 23:47:37;;;;;;;14.60;6.75;;;20.20;97.70;;;;;;4871768;29;20049;-84
2021/07/02 23:50:07;;;;;;;10.07;5.57;;;20.10;97.90;;;;;;4867159;29;20049;-83
2021/07/02 23:52:35;;;;;;;16.50;8.00;;;20.00;97.50;;;;;;4844258;29;20064;-83
2021/07/02 23:55:08;;;;;;;10.98;5.68;;;20.00;98.10;;;;;;4842068;29;20057;-86
2021/07/02 23:57:38;;;;;;;10.27;5.00;;;19.90;97.70;;;;;;4863688;29;20053;-84
